createdAt,value
2022-10-05T00:00:53.309Z,68.63
2022-10-05T00:03:28.752Z,68.65
2022-10-05T00:06:02.593Z,68.52
2022-10-05T00:08:36.790Z,68.58
2022-10-05T00:11:10.980Z,68.65
2022-10-05T00:13:44.588Z,68.72
2022-10-05T00:16:20.967Z,68.81
2022-10-05T00:18:56.084Z,68.82
2022-10-05T00:21:30.456Z,68.78
2022-10-05T00:24:03.779Z,68.73
2022-10-05T00:26:37.399Z,68.83
2022-10-05T00:29:18.886Z,69.03
2022-10-05T00:31:52.889Z,69.18
2022-10-05T00:34:26.612Z,69.33
2022-10-05T00:36:59.902Z,69.43
2022-10-05T00:39:34.722Z,69.41
2022-10-05T00:42:16.919Z,69.43
2022-10-05T00:44:53.733Z,69.37
2022-10-05T00:47:37.152Z,69.39
2022-10-05T00:50:19.293Z,69.47
2022-10-05T00:52:57.015Z,69.55
2022-10-05T00:55:35.344Z,69.65
2022-10-05T00:58:14.498Z,69.63
2022-10-05T01:00:50.889Z,69.60
2022-10-05T01:03:27.378Z,69.59
2022-10-05T01:06:05.866Z,69.61
2022-10-05T01:08:44.433Z,69.70
2022-10-05T01:11:22.460Z,69.71
2022-10-05T01:14:02.577Z,69.73
2022-10-05T01:16:39.111Z,69.79
2022-10-05T01:19:18.125Z,69.87
2022-10-05T01:21:54.303Z,69.96
2022-10-05T01:24:48.286Z,70.11
2022-10-05T01:27:43.668Z,70.13
2022-10-05T01:30:20.112Z,70.04
2022-10-05T01:32:57.185Z,70.10
2022-10-05T01:35:37.554Z,70.31
2022-10-05T01:38:21.396Z,70.42
2022-10-05T01:40:58.987Z,70.46
2022-10-05T01:43:37.236Z,70.35
2022-10-05T01:46:14.847Z,70.35
2022-10-05T01:48:52.371Z,70.33
2022-10-05T01:51:29.527Z,70.39
2022-10-05T01:54:05.418Z,70.54
2022-10-05T01:56:42.918Z,70.47
2022-10-05T01:59:21.120Z,70.53
2022-10-05T02:01:59.288Z,70.55
2022-10-05T02:05:00.956Z,70.65
2022-10-05T02:07:15.289Z,70.75
2022-10-05T02:09:52.123Z,70.80
2022-10-05T02:12:29.600Z,70.94
2022-10-05T02:15:07.472Z,71.11
2022-10-05T02:17:44.298Z,71.40
2022-10-05T02:20:20.937Z,71.64
2022-10-05T02:22:57.600Z,71.86
2022-10-05T02:25:34.625Z,71.89
2022-10-05T02:28:11.504Z,72.01
2022-10-05T02:30:48.378Z,72.04
2022-10-05T02:33:26.146Z,72.12
2022-10-05T02:36:03.723Z,72.26
2022-10-05T02:38:41.269Z,72.29
2022-10-05T02:41:18.442Z,72.41
2022-10-05T02:43:55.154Z,72.38
2022-10-05T02:46:34.242Z,72.45
2022-10-05T02:49:10.104Z,72.57
2022-10-05T02:51:48.143Z,72.34
2022-10-05T02:54:23.803Z,72.56
2022-10-05T02:56:59.781Z,72.46
2022-10-05T02:59:36.917Z,72.60
2022-10-05T03:02:13.554Z,72.91
2022-10-05T03:04:50.552Z,72.81
2022-10-05T03:07:27.075Z,72.99
2022-10-05T03:10:04.379Z,72.94
2022-10-05T03:12:51.470Z,72.97
2022-10-05T03:15:45.261Z,73.09
2022-10-05T03:18:28.559Z,73.29
2022-10-05T03:21:04.335Z,73.39
2022-10-05T03:23:41.545Z,73.44
2022-10-05T03:26:25.652Z,73.50
2022-10-05T03:29:02.678Z,73.47
2022-10-05T03:31:39.485Z,73.47
2022-10-05T03:34:16.110Z,73.54
2022-10-05T03:36:52.771Z,73.66
2022-10-05T03:39:28.872Z,73.83
2022-10-05T03:42:07.478Z,74.03
2022-10-05T03:44:48.437Z,73.98
2022-10-05T03:47:26.942Z,74.10
2022-10-05T03:50:10.862Z,74.16
2022-10-05T03:52:48.256Z,74.15
2022-10-05T03:55:27.518Z,74.07
2022-10-05T03:58:03.050Z,74.03
2022-10-05T04:00:38.365Z,74.05
2022-10-05T04:03:15.672Z,74.06
2022-10-05T04:05:53.070Z,74.15
2022-10-05T04:08:30.507Z,74.17
2022-10-05T04:11:07.660Z,74.21
2022-10-05T04:13:44.230Z,74.14
2022-10-05T04:16:20.865Z,74.16
2022-10-05T04:18:58.363Z,74.21
2022-10-05T04:21:32.132Z,74.31
2022-10-05T04:24:08.698Z,74.16
2022-10-05T04:26:45.604Z,74.27
2022-10-05T04:29:23.390Z,74.34
2022-10-05T04:32:04.973Z,74.33
2022-10-05T04:34:46.120Z,74.52
2022-10-05T04:40:09.975Z,74.73
2022-10-05T04:42:47.556Z,74.65
2022-10-05T04:45:26.143Z,74.65
2022-10-05T04:48:18.162Z,74.57
2022-10-05T04:51:02.391Z,74.56
2022-10-05T04:53:38.852Z,74.63
2022-10-05T04:56:15.254Z,74.60
2022-10-05T04:59:04.084Z,74.58
2022-10-05T05:01:46.115Z,74.52
2022-10-05T05:04:35.642Z,74.56
2022-10-05T05:07:15.997Z,74.56
2022-10-05T05:10:14.162Z,74.63
2022-10-05T05:12:52.247Z,74.70
2022-10-05T05:15:35.232Z,74.73
2022-10-05T05:18:24.701Z,74.72
2022-10-05T05:21:01.409Z,74.69
2022-10-05T05:23:38.696Z,74.58
2022-10-05T05:26:15.372Z,74.58
2022-10-05T05:28:53.692Z,74.53
2022-10-05T05:31:31.385Z,74.48
2022-10-05T05:34:07.692Z,74.40
2022-10-05T05:36:51.614Z,74.40
2022-10-05T05:39:28.436Z,74.41
2022-10-05T05:42:05.663Z,74.39
2022-10-05T05:44:44.203Z,74.35
2022-10-05T05:47:21.909Z,74.34
2022-10-05T05:50:07.449Z,74.29
2022-10-05T05:52:45.541Z,74.21
2022-10-05T05:55:29.693Z,74.42
2022-10-05T05:58:02.932Z,74.42
2022-10-05T06:00:41.246Z,74.22
2022-10-05T06:03:18.323Z,74.23
2022-10-05T06:05:55.832Z,74.26
2022-10-05T06:08:32.850Z,74.27
2022-10-05T06:11:12.050Z,74.17
2022-10-05T06:13:46.120Z,74.18
2022-10-05T06:16:23.926Z,74.18
2022-10-05T06:18:57.647Z,74.18
2022-10-05T06:21:33.980Z,73.94
2022-10-05T06:24:12.760Z,74.03
2022-10-05T06:30:11.443Z,74.24
2022-10-05T06:32:57.686Z,73.89
2022-10-05T06:35:38.628Z,73.74
2022-10-05T06:38:24.528Z,73.87
2022-10-05T06:41:03.595Z,73.93
2022-10-05T06:43:50.674Z,73.85
2022-10-05T06:46:45.660Z,73.76
2022-10-05T06:49:42.636Z,73.74
2022-10-05T06:52:39.593Z,73.61
2022-10-05T06:55:19.777Z,73.52
2022-10-05T06:58:01.473Z,73.39
2022-10-05T07:00:38.957Z,73.13
2022-10-05T07:03:17.350Z,73.11
2022-10-05T07:05:56.368Z,73.20
2022-10-05T07:08:37.951Z,72.95
2022-10-05T07:11:16.633Z,72.61
2022-10-05T07:14:03.894Z,72.49
2022-10-05T07:16:46.245Z,72.32
2022-10-05T07:19:35.324Z,72.09
2022-10-05T07:22:22.336Z,71.83
2022-10-05T07:25:01.000Z,71.10
2022-10-05T07:27:37.417Z,70.73
2022-10-05T07:30:15.045Z,71.03
2022-10-05T07:32:55.151Z,70.89
2022-10-05T07:35:51.446Z,70.53
2022-10-05T07:38:28.057Z,70.18
2022-10-05T07:41:05.520Z,69.58
2022-10-05T07:44:01.584Z,69.25
2022-10-05T07:46:24.513Z,69.21
2022-10-05T07:49:06.229Z,68.66
2022-10-05T07:51:44.426Z,67.16
2022-10-05T07:54:21.747Z,67.33
2022-10-05T07:56:59.259Z,67.48
2022-10-05T07:59:38.807Z,67.60
2022-10-05T08:02:17.867Z,68.18
2022-10-05T08:04:54.823Z,68.90
2022-10-05T08:07:30.133Z,68.98
2022-10-05T08:10:07.395Z,68.90
2022-10-05T08:12:44.346Z,68.97
2022-10-05T08:15:20.860Z,69.07
2022-10-05T08:17:57.215Z,69.05
2022-10-05T08:20:42.245Z,69.25
2022-10-05T08:23:26.337Z,68.88
2022-10-05T08:26:06.144Z,69.03
2022-10-05T08:28:42.741Z,68.90
2022-10-05T08:31:21.123Z,68.65
2022-10-05T08:33:59.643Z,68.42
2022-10-05T08:36:42.102Z,68.41
2022-10-05T08:39:18.357Z,68.14
2022-10-05T08:42:21.029Z,68.44
2022-10-05T08:45:35.843Z,68.59
2022-10-05T08:48:32.519Z,68.95
2022-10-05T08:51:30.998Z,68.87
2022-10-05T08:57:48.524Z,69.16
2022-10-05T09:00:23.530Z,69.28
2022-10-05T09:03:39.954Z,68.99
2022-10-05T09:06:59.859Z,69.00
2022-10-05T09:09:59.545Z,69.07
2022-10-05T09:12:46.919Z,68.73
2022-10-05T09:15:44.361Z,68.16
2022-10-05T09:18:31.467Z,67.21
2022-10-05T09:21:09.802Z,66.69
2022-10-05T09:23:44.617Z,66.65
2022-10-05T09:26:46.473Z,61.49
2022-10-05T09:29:42.812Z,56.53
2022-10-05T09:35:34.632Z,57.70
2022-10-05T09:38:23.459Z,54.62
2022-10-05T09:41:21.221Z,57.45
2022-10-05T09:44:08.973Z,59.62
2022-10-05T09:46:54.045Z,61.06
2022-10-05T09:49:46.788Z,62.95
2022-10-05T09:52:27.469Z,63.64
2022-10-05T09:55:46.950Z,64.20
2022-10-05T09:58:42.966Z,64.27
2022-10-05T10:01:33.510Z,64.61
2022-10-05T10:04:19.041Z,65.03
2022-10-05T10:07:38.678Z,65.02
2022-10-05T10:10:34.216Z,64.90
2022-10-05T10:13:23.738Z,64.17
2022-10-05T10:16:13.054Z,63.10
2022-10-05T10:19:24.987Z,62.43
2022-10-05T10:22:10.948Z,61.91
2022-10-05T10:25:13.931Z,61.00
2022-10-05T10:27:57.161Z,59.71
2022-10-05T10:30:48.418Z,60.06
2022-10-05T10:34:02.410Z,59.87
2022-10-05T10:36:54.461Z,60.05
2022-10-05T10:39:32.966Z,59.76
2022-10-05T10:42:36.225Z,58.60
2022-10-05T10:45:21.277Z,52.84
2022-10-05T10:48:00.860Z,48.56
2022-10-05T10:51:20.348Z,43.27
2022-10-05T10:54:20.125Z,42.20
2022-10-05T10:57:08.882Z,46.77
2022-10-05T11:00:37.334Z,49.57
2022-10-05T11:03:50.415Z,52.53
2022-10-05T11:06:46.766Z,54.87
2022-10-05T11:09:36.640Z,56.01
2022-10-05T11:12:45.875Z,57.03
2022-10-05T11:16:01.062Z,57.76
2022-10-05T11:18:45.300Z,58.43
2022-10-05T11:21:30.229Z,57.30
2022-10-05T11:24:30.613Z,56.76
2022-10-05T11:27:31.930Z,56.68
2022-10-05T11:30:35.442Z,57.09
2022-10-05T11:33:56.816Z,58.08
2022-10-05T11:37:20.439Z,59.26
2022-10-05T11:40:13.259Z,60.41
2022-10-05T11:43:08.004Z,61.58
2022-10-05T11:45:51.399Z,62.09
2022-10-05T11:48:44.297Z,62.15
2022-10-05T11:51:39.783Z,60.11
2022-10-05T11:57:40.633Z,58.96
2022-10-05T12:00:20.343Z,59.38
2022-10-05T12:03:36.006Z,59.25
2022-10-05T12:06:31.189Z,59.80
2022-10-05T12:09:11.829Z,59.12
2022-10-05T12:11:57.949Z,59.13
2022-10-05T12:14:37.417Z,59.02
2022-10-05T12:17:17.411Z,60.13
2022-10-05T12:19:55.756Z,60.93
2022-10-05T12:22:36.188Z,61.74
2022-10-05T12:25:27.668Z,62.21
2022-10-05T12:28:05.490Z,62.83
2022-10-05T12:30:47.496Z,62.82
2022-10-05T12:33:27.269Z,61.15
2022-10-05T12:36:05.972Z,58.12
2022-10-05T12:38:45.004Z,58.29
2022-10-05T12:41:22.463Z,59.46
2022-10-05T12:44:04.932Z,58.95
2022-10-05T12:46:42.490Z,59.14
2022-10-05T12:49:57.266Z,59.95
2022-10-05T12:52:48.682Z,60.96
2022-10-05T12:55:26.992Z,62.00
2022-10-05T12:58:09.222Z,62.50
2022-10-05T13:00:47.537Z,63.04
2022-10-05T13:03:24.750Z,63.48
2022-10-05T13:06:04.241Z,64.13
2022-10-05T13:08:41.956Z,64.96
2022-10-05T13:11:18.670Z,65.30
2022-10-05T13:13:57.219Z,65.56
2022-10-05T13:16:36.153Z,65.73
2022-10-05T13:19:34.368Z,65.82
2022-10-05T13:22:16.961Z,66.01
2022-10-05T13:24:58.440Z,66.23
2022-10-05T13:27:35.472Z,66.29
2022-10-05T13:30:15.301Z,66.36
2022-10-05T13:32:52.346Z,66.51
2022-10-05T13:35:32.742Z,66.74
2022-10-05T13:38:10.439Z,67.09
2022-10-05T13:40:46.729Z,67.55
2022-10-05T13:43:23.484Z,67.92
2022-10-05T13:46:00.665Z,68.13
2022-10-05T13:48:48.925Z,68.26
2022-10-05T13:51:25.315Z,68.32
2022-10-05T13:54:04.894Z,68.26
2022-10-05T13:56:41.092Z,68.17
2022-10-05T13:59:18.836Z,68.01
2022-10-05T14:01:58.866Z,68.06
2022-10-05T14:04:35.915Z,68.00
2022-10-05T14:07:18.921Z,68.17
2022-10-05T14:09:53.203Z,68.28
2022-10-05T14:12:28.315Z,68.43
2022-10-05T14:15:04.654Z,68.47
2022-10-05T14:17:42.201Z,68.65
2022-10-05T14:20:25.670Z,68.74
2022-10-05T14:23:01.830Z,68.82
2022-10-05T14:25:38.108Z,68.99
2022-10-05T14:28:24.343Z,69.21
2022-10-05T14:31:02.137Z,69.31
2022-10-05T14:33:37.161Z,69.45
2022-10-05T14:36:16.346Z,69.65
2022-10-05T14:38:57.954Z,69.86
2022-10-05T14:41:33.395Z,70.25
2022-10-05T14:44:19.001Z,70.39
2022-10-05T14:46:55.639Z,70.58
2022-10-05T14:49:31.768Z,70.62
2022-10-05T14:52:25.813Z,70.72
2022-10-05T14:55:02.289Z,70.83
2022-10-05T14:57:39.358Z,70.77
2022-10-05T15:00:17.138Z,70.74
2022-10-05T15:03:19.138Z,70.69
2022-10-05T15:05:55.061Z,70.64
2022-10-05T15:08:41.629Z,70.74
2022-10-05T15:11:18.127Z,70.87
2022-10-05T15:13:52.368Z,70.98
2022-10-05T15:16:29.032Z,71.08
2022-10-05T15:19:05.372Z,71.15
2022-10-05T15:21:44.045Z,71.26
2022-10-05T15:24:20.857Z,71.42
2022-10-05T15:26:57.183Z,71.58
2022-10-05T15:29:55.059Z,71.73
2022-10-05T15:32:40.560Z,71.84
2022-10-05T15:35:55.458Z,71.96
2022-10-05T15:38:32.177Z,72.10
2022-10-05T15:41:16.301Z,72.28
2022-10-05T15:44:09.477Z,72.36
2022-10-05T15:46:48.160Z,72.49
2022-10-05T15:49:26.728Z,72.56
2022-10-05T15:52:05.890Z,72.71
2022-10-05T15:55:04.679Z,72.72
2022-10-05T15:57:42.039Z,72.79
2022-10-05T16:00:18.973Z,72.84
2022-10-05T16:02:55.922Z,72.90
2022-10-05T16:05:53.964Z,73.04
2022-10-05T16:08:52.259Z,73.03
2022-10-05T16:11:32.750Z,73.15
2022-10-05T16:14:13.852Z,73.19
2022-10-05T16:16:51.303Z,73.21
2022-10-05T16:19:28.316Z,73.20
2022-10-05T16:22:06.380Z,73.24
2022-10-05T16:25:05.771Z,73.29
2022-10-05T16:27:46.635Z,73.34
2022-10-05T16:30:23.598Z,73.36
2022-10-05T16:33:02.192Z,73.32
2022-10-05T16:35:40.446Z,73.24
2022-10-05T16:38:21.549Z,73.13
2022-10-05T16:41:02.104Z,73.10
2022-10-05T16:44:00.087Z,73.21
2022-10-05T16:46:36.286Z,73.16
2022-10-05T16:49:14.626Z,72.91
2022-10-05T16:51:51.964Z,72.99
2022-10-05T16:54:31.709Z,73.10
2022-10-05T16:57:09.020Z,73.13
2022-10-05T17:00:12.044Z,73.12
2022-10-05T17:03:23.131Z,73.22
2022-10-05T17:06:11.101Z,73.20
2022-10-05T17:12:12.165Z,73.46
2022-10-05T17:14:58.778Z,73.50
2022-10-05T17:17:49.158Z,73.63
2022-10-05T17:20:42.944Z,73.65
2022-10-05T17:23:30.874Z,73.57
2022-10-05T17:26:12.442Z,73.38
2022-10-05T17:28:48.822Z,73.47
2022-10-05T17:31:28.290Z,73.58
2022-10-05T17:34:29.655Z,73.61
2022-10-05T17:37:25.151Z,73.57
2022-10-05T17:43:08.460Z,73.88
2022-10-05T17:45:59.290Z,74.10
2022-10-05T17:48:45.668Z,74.31
2022-10-05T17:55:10.042Z,74.70
2022-10-05T17:57:44.300Z,74.79
2022-10-05T18:03:50.656Z,75.25
2022-10-05T18:06:54.543Z,75.48
2022-10-05T18:09:41.352Z,75.83
2022-10-05T18:12:51.904Z,75.92
2022-10-05T18:15:56.443Z,75.94
2022-10-05T18:18:58.588Z,76.14
2022-10-05T18:21:40.696Z,76.30
2022-10-05T18:24:55.280Z,76.44
2022-10-05T18:30:49.194Z,76.86
2022-10-05T18:34:07.737Z,77.05
2022-10-05T18:37:19.461Z,77.26
2022-10-05T18:40:07.158Z,77.46
2022-10-05T18:42:46.348Z,77.55
2022-10-05T18:45:28.186Z,77.64
2022-10-05T18:48:11.988Z,77.73
2022-10-05T18:50:54.015Z,77.79
2022-10-05T18:53:32.410Z,77.89
2022-10-05T18:56:18.255Z,77.91
2022-10-05T18:58:57.177Z,77.90
2022-10-05T19:01:50.279Z,77.80
2022-10-05T19:04:42.118Z,77.68
2022-10-05T19:07:22.621Z,77.52
2022-10-05T19:10:18.907Z,77.46
2022-10-05T19:13:02.767Z,77.37
2022-10-05T19:18:48.595Z,77.27
2022-10-05T19:21:28.105Z,77.22
2022-10-05T19:27:13.272Z,77.24
2022-10-05T19:30:07.362Z,77.13
2022-10-05T19:32:46.393Z,77.08
2022-10-05T19:35:32.032Z,76.95
2022-10-05T19:41:08.310Z,76.96
2022-10-05T19:43:50.908Z,76.89
2022-10-05T19:46:28.443Z,76.87
2022-10-05T19:49:03.023Z,76.89
2022-10-05T19:51:40.992Z,76.92
2022-10-05T19:54:21.763Z,76.92
2022-10-05T19:56:57.861Z,76.90
2022-10-05T19:59:37.057Z,76.94
2022-10-05T20:02:13.610Z,76.94
2022-10-05T20:04:49.683Z,76.92
2022-10-05T20:07:24.587Z,76.87
2022-10-05T20:10:00.183Z,76.92
2022-10-05T20:12:56.689Z,76.89
2022-10-05T20:15:49.336Z,76.98
2022-10-05T20:18:59.351Z,77.06
2022-10-05T20:21:44.939Z,77.13
2022-10-05T20:24:20.549Z,77.22
2022-10-05T20:27:06.084Z,77.29
2022-10-05T20:29:40.711Z,77.28
2022-10-05T20:32:18.136Z,77.29
2022-10-05T20:34:53.372Z,77.33
2022-10-05T20:37:27.294Z,77.42
2022-10-05T20:40:00.793Z,77.49
2022-10-05T20:42:34.920Z,77.59
2022-10-05T20:45:10.353Z,77.66
2022-10-05T20:47:45.443Z,77.78
2022-10-05T20:50:21.261Z,77.82
2022-10-05T20:52:54.750Z,77.92
2022-10-05T20:55:29.594Z,78.07
2022-10-05T20:58:03.989Z,78.19
2022-10-05T21:00:56.349Z,78.32
2022-10-05T21:03:29.830Z,78.33
2022-10-05T21:06:03.363Z,78.37
2022-10-05T21:08:38.299Z,78.40
2022-10-05T21:11:11.934Z,78.43
2022-10-05T21:13:46.279Z,78.56
2022-10-05T21:16:20.748Z,78.65
2022-10-05T21:18:54.196Z,78.76
2022-10-05T21:21:28.252Z,78.84
2022-10-05T21:24:01.721Z,78.89
2022-10-05T21:26:37.110Z,78.98
2022-10-05T21:29:12.678Z,79.03
2022-10-05T21:31:46.296Z,79.00
2022-10-05T21:34:19.714Z,78.95
2022-10-05T21:36:53.011Z,78.92
2022-10-05T21:39:26.988Z,78.86
2022-10-05T21:42:00.446Z,78.84
2022-10-05T21:44:33.718Z,78.88
2022-10-05T21:47:07.768Z,78.92
2022-10-05T21:49:42.617Z,79.00
2022-10-05T21:52:16.084Z,79.08
2022-10-05T21:54:49.644Z,79.15
2022-10-05T21:57:23.273Z,79.15
2022-10-05T21:59:56.714Z,79.20
2022-10-05T22:02:30.096Z,79.21
2022-10-05T22:05:03.672Z,79.32
2022-10-05T22:07:36.984Z,79.38
2022-10-05T22:10:11.901Z,79.42
2022-10-05T22:12:46.945Z,79.39
2022-10-05T22:15:20.667Z,79.48
2022-10-05T22:17:54.153Z,79.55
2022-10-05T22:20:28.301Z,79.65
2022-10-05T22:23:01.892Z,79.73
2022-10-05T22:25:35.893Z,79.78
2022-10-05T22:28:11.825Z,79.83
2022-10-05T22:30:46.421Z,79.89
2022-10-05T22:33:19.767Z,80.05
2022-10-05T22:35:53.197Z,80.14
2022-10-05T22:38:27.313Z,80.28
2022-10-05T22:41:00.957Z,80.36
2022-10-05T22:43:34.162Z,80.50
2022-10-05T22:46:12.348Z,80.80
2022-10-05T22:48:46.304Z,81.18
2022-10-05T22:51:19.658Z,81.69
2022-10-05T22:53:52.971Z,82.11
2022-10-05T22:56:26.269Z,82.39
2022-10-05T22:58:59.992Z,82.64
2022-10-05T23:01:33.562Z,82.86
2022-10-05T23:04:08.896Z,82.97
2022-10-05T23:06:42.786Z,83.09
2022-10-05T23:09:16.429Z,83.19
2022-10-05T23:11:51.557Z,83.32
2022-10-05T23:14:25.134Z,83.29
2022-10-05T23:16:58.646Z,83.33
2022-10-05T23:19:32.171Z,83.35
2022-10-05T23:22:06.395Z,83.47
2022-10-05T23:24:39.971Z,83.49
2022-10-05T23:27:13.803Z,83.56
2022-10-05T23:29:47.463Z,83.61
2022-10-05T23:32:21.296Z,83.67
2022-10-05T23:34:54.915Z,83.69
2022-10-05T23:37:29.210Z,83.78
2022-10-05T23:40:02.740Z,83.82
2022-10-05T23:42:36.054Z,83.92
2022-10-05T23:45:12.335Z,83.98
2022-10-05T23:47:47.370Z,84.07
2022-10-05T23:50:21.537Z,84.13
2022-10-05T23:52:55.021Z,84.14
2022-10-05T23:55:28.877Z,84.21
2022-10-05T23:58:02.534Z,84.23
